createdAt,value
2018-09-06T00:02:11.042Z,61.30
2018-09-06T00:04:40.182Z,60.57
2018-09-06T00:07:09.402Z,60.40
2018-09-06T00:09:38.508Z,59.80
2018-09-06T00:12:07.652Z,56.50
2018-09-06T00:14:37.060Z,58.07
2018-09-06T00:17:06.211Z,58.17
2018-09-06T00:19:35.406Z,61.50
2018-09-06T00:22:05.565Z,60.90
2018-09-06T00:24:34.688Z,57.20
2018-09-06T00:27:03.854Z,59.60
2018-09-06T00:29:32.984Z,59.53
2018-09-06T00:32:02.138Z,60.97
2018-09-06T00:34:31.305Z,62.47
2018-09-06T00:37:00.450Z,59.40
2018-09-06T00:39:29.598Z,58.67
2018-09-06T00:41:58.827Z,57.57
2018-09-06T00:44:28.018Z,57.00
2018-09-06T00:46:57.178Z,56.43
2018-09-06T00:49:26.277Z,55.57
2018-09-06T00:51:55.426Z,56.03
2018-09-06T00:54:24.585Z,56.57
2018-09-06T00:56:53.698Z,58.43
2018-09-06T00:59:24.675Z,53.33
2018-09-06T01:01:54.799Z,56.60
2018-09-06T01:04:23.915Z,53.57
2018-09-06T01:06:53.395Z,53.30
2018-09-06T01:09:22.733Z,55.00
2018-09-06T01:11:51.844Z,53.53
2018-09-06T01:14:20.965Z,56.77
2018-09-06T01:16:50.106Z,56.07
2018-09-06T01:19:19.219Z,59.67
2018-09-06T01:21:48.346Z,58.13
2018-09-06T01:24:17.453Z,53.40
2018-09-06T01:26:46.573Z,52.80
2018-09-06T01:29:15.829Z,56.90
2018-09-06T01:31:45.021Z,55.37
2018-09-06T01:34:14.178Z,56.83
2018-09-06T01:36:47.013Z,53.23
2018-09-06T01:39:16.631Z,55.10
2018-09-06T01:41:45.747Z,57.90
2018-09-06T01:44:14.857Z,58.20
2018-09-06T01:46:43.983Z,52.07
2018-09-06T01:49:13.157Z,48.80
2018-09-06T01:51:42.281Z,48.10
2018-09-06T01:54:11.542Z,49.80
2018-09-06T01:56:40.765Z,49.97
2018-09-06T01:59:16.645Z,50.10
2018-09-06T02:01:45.798Z,51.67
2018-09-06T02:04:14.917Z,48.23
2018-09-06T02:06:44.194Z,48.63
2018-09-06T02:09:13.616Z,49.30
2018-09-06T02:11:42.744Z,47.80
2018-09-06T02:14:11.936Z,48.07
2018-09-06T02:16:41.061Z,48.63
2018-09-06T02:19:10.204Z,47.90
2018-09-06T02:21:39.487Z,43.87
2018-09-06T02:24:08.591Z,44.10
2018-09-06T02:26:37.806Z,45.80
2018-09-06T02:29:06.915Z,44.20
2018-09-06T02:31:36.044Z,47.27
2018-09-06T02:34:05.162Z,47.33
2018-09-06T02:36:34.279Z,45.50
2018-09-06T02:39:04.610Z,43.23
2018-09-06T02:41:33.826Z,44.37
2018-09-06T02:44:02.973Z,43.47
2018-09-06T02:46:32.105Z,44.07
2018-09-06T02:49:01.297Z,43.40
2018-09-06T02:51:30.512Z,43.83
2018-09-06T02:53:59.737Z,45.37
2018-09-06T02:56:28.889Z,46.63
2018-09-06T02:58:58.018Z,43.17
2018-09-06T03:01:27.128Z,42.87
2018-09-06T03:03:56.307Z,46.57
2018-09-06T03:06:25.480Z,43.80
2018-09-06T03:08:54.582Z,44.70
2018-09-06T03:11:25.898Z,45.70
2018-09-06T03:13:55.033Z,40.90
2018-09-06T03:16:24.165Z,41.57
2018-09-06T03:18:53.408Z,43.80
2018-09-06T03:21:22.636Z,42.93
2018-09-06T03:23:51.808Z,44.70
2018-09-06T03:26:21.212Z,42.10
2018-09-06T03:28:51.387Z,41.43
2018-09-06T03:31:20.641Z,43.83
2018-09-06T03:33:50.204Z,40.40
2018-09-06T03:36:19.328Z,40.80
2018-09-06T03:38:48.448Z,41.87
2018-09-06T03:41:17.592Z,42.03
2018-09-06T03:43:46.721Z,41.73
2018-09-06T03:46:15.920Z,39.37
2018-09-06T03:48:45.022Z,38.27
2018-09-06T03:51:14.133Z,39.90
2018-09-06T03:53:43.295Z,39.40
2018-09-06T03:56:12.699Z,40.57
2018-09-06T03:58:41.911Z,40.20
2018-09-06T04:01:11.031Z,40.37
2018-09-06T04:03:40.233Z,39.80
2018-09-06T04:06:09.389Z,38.63
2018-09-06T04:08:38.496Z,41.30
2018-09-06T04:11:07.692Z,38.17
2018-09-06T04:13:36.868Z,38.20
2018-09-06T04:16:06.198Z,40.27
2018-09-06T04:18:35.490Z,37.00
2018-09-06T04:21:04.538Z,38.50
2018-09-06T04:23:34.066Z,36.40
2018-09-06T04:26:03.204Z,39.00
2018-09-06T04:28:32.382Z,37.13
2018-09-06T04:31:01.576Z,35.23
2018-09-06T04:33:30.788Z,38.90
2018-09-06T04:35:59.901Z,36.70
2018-09-06T04:38:29.654Z,38.87
2018-09-06T04:40:58.780Z,37.73
2018-09-06T04:43:27.892Z,37.90
2018-09-06T04:45:57.075Z,41.83
2018-09-06T04:48:26.188Z,36.70
2018-09-06T04:50:55.327Z,37.97
2018-09-06T04:53:24.465Z,38.23
2018-09-06T04:55:53.653Z,35.17
2018-09-06T04:58:22.906Z,35.00
2018-09-06T05:00:52.134Z,36.33
2018-09-06T05:03:21.247Z,35.83
2018-09-06T05:05:50.485Z,36.23
2018-09-06T05:08:19.659Z,36.77
2018-09-06T05:10:48.900Z,38.80
2018-09-06T05:13:18.041Z,35.60
2018-09-06T05:15:47.237Z,36.73
2018-09-06T05:18:16.409Z,36.77
2018-09-06T05:20:45.684Z,34.20
2018-09-06T05:23:14.825Z,36.87
2018-09-06T05:25:44.022Z,36.37
2018-09-06T05:28:13.153Z,36.47
2018-09-06T05:30:42.398Z,35.17
2018-09-06T05:33:11.525Z,35.00
2018-09-06T05:35:40.722Z,35.20
2018-09-06T05:38:09.936Z,36.83
2018-09-06T05:40:39.053Z,36.80
2018-09-06T05:43:08.280Z,36.10
2018-09-06T05:45:37.468Z,35.50
2018-09-06T05:48:06.678Z,35.37
2018-09-06T05:57:23.412Z,35.90
2018-09-06T05:59:52.550Z,35.43
2018-09-06T06:02:21.744Z,36.53
2018-09-06T06:04:50.950Z,40.00
2018-09-06T06:07:20.320Z,41.57
2018-09-06T06:09:49.424Z,40.83
2018-09-06T06:12:18.624Z,44.20
2018-09-06T06:14:47.750Z,46.83
2018-09-06T06:17:16.928Z,46.07
2018-09-06T06:19:46.056Z,45.63
2018-09-06T06:22:15.227Z,44.30
2018-09-06T06:24:44.344Z,41.60
2018-09-06T06:27:13.552Z,42.30
2018-09-06T06:29:42.708Z,42.00
2018-09-06T06:32:11.978Z,41.10
2018-09-06T06:34:41.084Z,40.10
2018-09-06T06:37:10.209Z,41.17
2018-09-06T06:39:39.317Z,37.70
2018-09-06T06:42:08.517Z,39.40
2018-09-06T06:44:37.622Z,37.80
2018-09-06T06:47:06.749Z,40.00
2018-09-06T06:49:35.885Z,38.90
2018-09-06T06:52:05.007Z,38.57
2018-09-06T06:54:34.160Z,36.17
2018-09-06T06:57:03.352Z,35.10
2018-09-06T06:59:32.426Z,34.27
2018-09-06T07:02:01.524Z,35.10
2018-09-06T07:04:30.761Z,33.77
2018-09-06T07:06:59.986Z,35.97
2018-09-06T07:09:29.076Z,34.67
2018-09-06T07:11:58.296Z,34.63
2018-09-06T07:14:27.448Z,35.30
2018-09-06T07:16:56.618Z,36.90
2018-09-06T07:19:25.732Z,34.03
2018-09-06T07:21:54.947Z,35.13
2018-09-06T07:24:24.148Z,33.60
2018-09-06T07:26:53.313Z,32.60
2018-09-06T07:29:22.550Z,29.67
2018-09-06T07:31:51.644Z,29.97
2018-09-06T07:34:20.843Z,30.70
2018-09-06T07:36:49.975Z,30.03
2018-09-06T07:39:19.197Z,31.57
2018-09-06T07:41:48.309Z,30.87
2018-09-06T07:44:17.477Z,27.20
2018-09-06T07:46:46.656Z,108.23
2018-09-06T07:49:15.753Z,304.93
2018-09-06T07:51:44.999Z,45.90
2018-09-06T07:54:14.237Z,25.40
2018-09-06T07:56:43.378Z,25.10
2018-09-06T07:59:12.689Z,25.73
2018-09-06T08:01:42.015Z,23.67
2018-09-06T08:04:11.166Z,27.43
2018-09-06T08:06:40.493Z,25.70
2018-09-06T08:09:11.108Z,26.80
2018-09-06T08:11:41.007Z,24.90
2018-09-06T08:14:10.129Z,24.87
2018-09-06T08:16:39.375Z,25.23
2018-09-06T08:19:08.463Z,25.00
2018-09-06T08:21:37.661Z,23.37
2018-09-06T08:24:06.887Z,20.67
2018-09-06T08:26:36.040Z,23.77
2018-09-06T08:29:05.301Z,22.40
2018-09-06T08:31:34.651Z,20.87
2018-09-06T08:34:03.767Z,23.87
2018-09-06T08:36:32.932Z,23.40
2018-09-06T08:39:02.112Z,22.60
2018-09-06T08:41:31.242Z,21.43
2018-09-06T08:44:00.486Z,23.00
2018-09-06T08:46:29.580Z,21.83
2018-09-06T08:48:58.728Z,23.37
2018-09-06T08:51:27.953Z,23.40
2018-09-06T08:53:57.109Z,24.30
2018-09-06T08:56:26.308Z,21.50
2018-09-06T08:58:55.414Z,23.00
2018-09-06T09:01:29.785Z,21.93
2018-09-06T09:03:58.900Z,20.20
2018-09-06T09:06:28.104Z,19.33
2018-09-06T09:08:57.226Z,21.40
2018-09-06T09:11:26.432Z,20.23
2018-09-06T09:13:55.607Z,20.83
2018-09-06T09:16:24.741Z,18.30
2018-09-06T09:18:53.905Z,18.37
2018-09-06T09:21:23.173Z,19.83
2018-09-06T09:23:52.463Z,22.93
2018-09-06T09:26:21.622Z,20.07
2018-09-06T09:28:50.728Z,22.07
2018-09-06T09:31:19.884Z,20.83
2018-09-06T09:33:49.087Z,19.50
2018-09-06T09:36:18.165Z,22.20
2018-09-06T09:38:47.418Z,20.60
2018-09-06T09:41:16.560Z,19.20
2018-09-06T09:43:45.703Z,19.60
2018-09-06T09:48:43.170Z,20.47
2018-09-06T09:51:12.248Z,18.53
2018-09-06T09:53:41.448Z,18.30
2018-09-06T09:56:10.540Z,17.67
2018-09-06T09:58:39.718Z,18.00
2018-09-06T10:01:08.924Z,17.23
2018-09-06T10:03:43.453Z,18.20
2018-09-06T10:06:21.804Z,17.80
2018-09-06T10:08:56.256Z,17.97
2018-09-06T10:11:25.698Z,18.33
2018-09-06T10:13:54.986Z,17.90
2018-09-06T10:16:24.116Z,18.30
2018-09-06T10:18:53.216Z,17.20
2018-09-06T10:21:22.373Z,17.63
2018-09-06T10:23:51.585Z,18.20
2018-09-06T10:26:20.786Z,17.03
2018-09-06T10:28:49.961Z,20.30
2018-09-06T10:31:19.331Z,17.57
2018-09-06T10:33:48.563Z,17.60
2018-09-06T10:36:17.929Z,15.90
2018-09-06T10:38:47.052Z,16.60
2018-09-06T10:41:16.293Z,18.70
2018-09-06T10:43:45.432Z,15.43
2018-09-06T10:46:14.553Z,16.47
2018-09-06T10:48:43.865Z,15.87
2018-09-06T10:51:13.782Z,16.23
2018-09-06T10:53:43.096Z,16.67
2018-09-06T10:56:12.931Z,16.17
2018-09-06T10:58:42.307Z,17.13
2018-09-06T11:01:16.870Z,17.17
2018-09-06T11:03:46.111Z,15.67
2018-09-06T11:06:15.220Z,16.70
2018-09-06T11:08:47.268Z,16.73
2018-09-06T11:11:16.449Z,16.67
2018-09-06T11:13:45.581Z,15.60
2018-09-06T11:16:14.884Z,16.13
2018-09-06T11:18:44.032Z,15.90
2018-09-06T11:21:13.322Z,17.63
2018-09-06T11:23:42.421Z,14.77
2018-09-06T11:26:11.542Z,16.33
2018-09-06T11:28:40.670Z,14.87
2018-09-06T11:31:09.812Z,16.30
2018-09-06T11:33:39.046Z,15.50
2018-09-06T11:36:08.250Z,15.27
2018-09-06T11:38:37.495Z,14.90
2018-09-06T11:41:06.744Z,15.17
2018-09-06T11:43:35.996Z,14.40
2018-09-06T11:46:05.118Z,15.90
2018-09-06T11:48:33.271Z,13.73
2018-09-06T11:51:01.234Z,13.40
2018-09-06T11:53:29.165Z,15.57
2018-09-06T11:55:57.096Z,13.87
2018-09-06T11:58:25.028Z,14.10
2018-09-06T12:00:52.942Z,14.00
2018-09-06T12:03:20.979Z,12.83
2018-09-06T12:05:48.880Z,13.10
2018-09-06T12:08:16.818Z,13.37
2018-09-06T12:10:45.066Z,13.73
2018-09-06T12:13:13.020Z,13.03
2018-09-06T12:15:40.959Z,12.50
2018-09-06T12:18:08.920Z,12.60
2018-09-06T12:20:36.944Z,14.07
2018-09-06T12:23:04.867Z,11.40
2018-09-06T12:25:33.060Z,12.60
2018-09-06T12:28:00.968Z,11.87
2018-09-06T12:30:28.927Z,12.43
2018-09-06T12:32:56.862Z,12.73
2018-09-06T12:35:24.773Z,12.37
2018-09-06T12:37:52.649Z,12.50
2018-09-06T12:40:20.607Z,12.47
2018-09-06T12:42:48.492Z,11.03
2018-09-06T12:45:16.402Z,11.50
2018-09-06T12:47:44.295Z,11.18
2018-09-06T12:50:12.275Z,10.50
2018-09-06T12:52:40.181Z,10.43
2018-09-06T12:55:08.072Z,11.00
2018-09-06T12:57:35.972Z,10.72
2018-09-06T13:00:04.010Z,9.70
2018-09-06T13:02:32.085Z,10.23
2018-09-06T13:05:00.295Z,10.43
2018-09-06T13:07:28.163Z,9.55
2018-09-06T13:09:56.084Z,9.78
2018-09-06T13:12:24.079Z,11.15
2018-09-06T13:14:52.027Z,9.55
2018-09-06T13:17:19.910Z,9.60
2018-09-06T13:19:48.412Z,10.32
2018-09-06T13:22:16.472Z,9.65
2018-09-06T13:24:44.356Z,10.15
2018-09-06T13:27:12.325Z,9.38
2018-09-06T13:29:40.196Z,9.88
2018-09-06T13:32:08.071Z,9.03
2018-09-06T13:34:36.015Z,9.23
2018-09-06T13:37:03.914Z,10.08
2018-09-06T13:39:31.817Z,9.65
2018-09-06T13:41:59.782Z,9.58
2018-09-06T13:44:27.724Z,10.00
2018-09-06T13:46:55.612Z,9.60
2018-09-06T13:49:23.507Z,8.75
2018-09-06T13:51:51.495Z,9.25
2018-09-06T13:54:19.399Z,9.60
2018-09-06T13:56:47.310Z,10.05
2018-09-06T13:59:15.201Z,9.20
2018-09-06T14:01:43.172Z,9.30
2018-09-06T14:04:11.128Z,9.50
2018-09-06T14:06:39.002Z,9.85
2018-09-06T14:09:06.910Z,10.05
2018-09-06T14:11:35.111Z,10.08
2018-09-06T14:14:03.177Z,9.80
2018-09-06T14:16:31.149Z,10.58
2018-09-06T14:18:59.127Z,9.98
2018-09-06T14:21:27.000Z,9.50
2018-09-06T14:23:55.056Z,9.85
2018-09-06T14:26:22.971Z,10.30
2018-09-06T14:28:50.923Z,9.70
2018-09-06T14:31:18.998Z,10.03
2018-09-06T14:33:46.878Z,9.70
2018-09-06T14:36:14.878Z,10.18
2018-09-06T14:38:42.878Z,9.98
2018-09-06T14:41:10.764Z,9.95
2018-09-06T14:43:38.667Z,9.70
2018-09-06T14:46:06.710Z,8.83
2018-09-06T14:48:34.655Z,10.50
2018-09-06T14:51:02.645Z,9.50
2018-09-06T14:53:30.528Z,10.40
2018-09-06T14:55:58.469Z,9.15
2018-09-06T14:58:26.388Z,10.68
2018-09-06T15:00:54.306Z,10.25
2018-09-06T15:03:22.204Z,10.18
2018-09-06T15:05:50.130Z,10.93
2018-09-06T15:08:18.088Z,10.48
2018-09-06T15:10:46.064Z,9.80
2018-09-06T15:13:13.963Z,10.48
2018-09-06T15:15:41.887Z,10.08
2018-09-06T15:18:09.850Z,9.68
2018-09-06T15:20:37.824Z,10.60
2018-09-06T15:23:05.827Z,9.78
2018-09-06T15:25:33.731Z,10.10
2018-09-06T15:28:01.826Z,9.73
2018-09-06T15:30:29.709Z,10.90
2018-09-06T15:32:57.703Z,9.98
2018-09-06T15:35:25.587Z,10.03
2018-09-06T15:37:53.543Z,10.28
2018-09-06T15:40:21.480Z,10.82
2018-09-06T15:42:49.373Z,10.00
2018-09-06T15:45:17.276Z,10.70
2018-09-06T15:47:45.176Z,10.38
2018-09-06T15:50:13.074Z,9.88
2018-09-06T15:52:40.960Z,10.48
2018-09-06T15:55:08.887Z,10.23
2018-09-06T15:57:36.881Z,10.18
2018-09-06T16:00:04.767Z,10.50
2018-09-06T16:02:32.716Z,10.68
2018-09-06T16:05:00.694Z,10.05
2018-09-06T16:07:28.572Z,10.60
2018-09-06T16:09:56.476Z,10.32
2018-09-06T16:12:24.469Z,10.95
2018-09-06T16:14:52.275Z,9.88
2018-09-06T16:17:20.157Z,10.78
2018-09-06T16:19:48.043Z,9.63
2018-09-06T16:22:15.938Z,10.67
2018-09-06T16:24:43.923Z,10.20
2018-09-06T16:27:11.892Z,10.77
2018-09-06T16:29:39.920Z,12.05
2018-09-06T16:32:07.903Z,18.80
2018-09-06T16:34:35.791Z,10.85
2018-09-06T16:37:03.770Z,11.00
2018-09-06T16:39:31.659Z,11.87
2018-09-06T16:41:59.566Z,11.40
2018-09-06T16:44:27.542Z,11.27
2018-09-06T16:46:55.538Z,10.60
2018-09-06T16:49:23.505Z,10.40
2018-09-06T16:51:51.415Z,11.20
2018-09-06T16:54:19.360Z,12.40
2018-09-06T16:56:47.291Z,12.57
2018-09-06T16:59:15.323Z,12.40
2018-09-06T17:01:43.307Z,12.90
2018-09-06T17:04:11.424Z,11.30
2018-09-06T17:06:39.462Z,11.90
2018-09-06T17:09:07.756Z,11.50
2018-09-06T17:11:35.804Z,12.60
2018-09-06T17:14:03.736Z,10.80
2018-09-06T17:16:31.664Z,12.50
2018-09-06T17:18:59.559Z,12.43
2018-09-06T17:21:27.475Z,11.67
2018-09-06T17:23:55.627Z,10.43
2018-09-06T17:26:23.859Z,11.63
2018-09-06T17:28:52.011Z,11.20
2018-09-06T17:31:19.928Z,11.90
2018-09-06T17:33:48.376Z,13.50
2018-09-06T17:36:17.017Z,11.77
2018-09-06T17:38:45.156Z,10.70
2018-09-06T17:41:13.303Z,11.23
2018-09-06T17:43:41.343Z,9.80
2018-09-06T17:46:09.595Z,10.70
2018-09-06T17:48:38.034Z,10.40
2018-09-06T17:51:07.740Z,10.93
2018-09-06T17:53:36.227Z,11.33
2018-09-06T17:56:04.536Z,10.03
2018-09-06T17:58:32.981Z,10.90
2018-09-06T18:01:08.451Z,10.97
2018-09-06T18:03:36.935Z,10.80
2018-09-06T18:06:05.246Z,12.03
2018-09-06T18:08:33.600Z,11.77
2018-09-06T18:11:02.204Z,11.10
2018-09-06T18:13:30.702Z,12.07
2018-09-06T18:15:59.671Z,11.37
2018-09-06T18:18:28.305Z,11.30
2018-09-06T18:20:56.932Z,10.60
2018-09-06T18:23:25.417Z,11.80
2018-09-06T18:25:53.889Z,11.03
2018-09-06T18:28:22.107Z,11.63
2018-09-06T18:30:50.550Z,11.80
2018-09-06T18:33:18.949Z,12.63
2018-09-06T18:35:47.468Z,12.03
2018-09-06T18:38:15.950Z,227.33
2018-09-06T18:40:44.264Z,22.07
2018-09-06T18:43:12.806Z,13.67
2018-09-06T18:45:41.642Z,12.60
2018-09-06T18:48:10.075Z,12.50
2018-09-06T18:50:39.481Z,12.93
2018-09-06T18:53:07.890Z,13.63
2018-09-06T18:55:36.438Z,12.77
2018-09-06T18:58:04.817Z,13.10
2018-09-06T19:00:33.136Z,12.00
2018-09-06T19:03:01.576Z,11.90
2018-09-06T19:05:30.051Z,11.57
2018-09-06T19:07:58.668Z,11.03
2018-09-06T19:10:26.988Z,11.97
2018-09-06T19:12:55.399Z,13.73
2018-09-06T19:15:23.917Z,14.67
2018-09-06T19:17:52.457Z,13.37
2018-09-06T19:20:21.144Z,15.43
2018-09-06T19:22:49.564Z,14.17
2018-09-06T19:25:17.928Z,13.97
2018-09-06T19:27:46.590Z,12.10
2018-09-06T19:30:15.273Z,12.00
2018-09-06T19:32:43.688Z,11.70
2018-09-06T19:35:12.133Z,13.50
2018-09-06T19:37:41.203Z,12.70
2018-09-06T19:40:09.612Z,12.73
2018-09-06T19:42:38.296Z,12.27
2018-09-06T19:45:06.787Z,13.23
2018-09-06T19:47:34.955Z,111.50
2018-09-06T19:50:03.434Z,14.77
2018-09-06T19:52:31.855Z,13.40
2018-09-06T19:55:00.306Z,14.50
2018-09-06T19:57:28.534Z,15.00
2018-09-06T19:59:56.904Z,15.50
2018-09-06T20:02:25.132Z,15.20
2018-09-06T20:04:53.559Z,15.30
2018-09-06T20:07:22.097Z,15.07
2018-09-06T20:09:50.209Z,14.47
2018-09-06T20:12:18.731Z,14.20
2018-09-06T20:14:46.941Z,12.93
2018-09-06T20:17:15.021Z,12.93
2018-09-06T20:19:43.387Z,14.13
2018-09-06T20:22:11.771Z,14.00
2018-09-06T20:24:40.053Z,13.40
2018-09-06T20:27:08.251Z,14.13
2018-09-06T20:29:36.674Z,13.30
2018-09-06T20:32:05.060Z,13.63
2018-09-06T20:34:33.445Z,13.60
2018-09-06T20:37:02.006Z,12.67
2018-09-06T20:39:30.546Z,13.37
2018-09-06T20:41:59.134Z,13.40
2018-09-06T20:44:27.672Z,12.53
2018-09-06T20:46:55.870Z,13.03
2018-09-06T20:49:24.310Z,11.17
2018-09-06T20:51:52.690Z,11.37
2018-09-06T20:54:21.474Z,11.13
2018-09-06T20:56:49.609Z,9.30
2018-09-06T20:59:18.136Z,10.00
2018-09-06T21:01:46.279Z,8.13
2018-09-06T21:04:14.615Z,9.67
2018-09-06T21:06:42.736Z,9.50
2018-09-06T21:09:11.069Z,7.13
2018-09-06T21:11:41.543Z,8.00
2018-09-06T21:14:09.831Z,7.03
2018-09-06T21:16:37.872Z,7.40
2018-09-06T21:19:05.816Z,6.97
2018-09-06T21:21:33.723Z,6.20
2018-09-06T21:24:01.709Z,7.63
2018-09-06T21:26:29.775Z,6.97
2018-09-06T21:28:57.706Z,6.83
2018-09-06T21:31:25.616Z,8.50
2018-09-06T21:33:53.522Z,32.37
2018-09-06T21:36:21.510Z,6.47
2018-09-06T21:38:49.409Z,4.90
2018-09-06T21:41:17.391Z,5.57
2018-09-06T21:43:45.271Z,5.57
2018-09-06T21:46:13.207Z,4.50
2018-09-06T21:48:41.189Z,4.27
2018-09-06T21:51:09.111Z,4.63
2018-09-06T21:53:37.241Z,5.17
2018-09-06T21:56:05.167Z,4.80
2018-09-06T21:58:33.118Z,5.50
2018-09-06T22:01:01.071Z,6.13
2018-09-06T22:03:34.371Z,5.60
2018-09-06T22:06:02.351Z,5.20
2018-09-06T22:08:30.463Z,5.30
2018-09-06T22:10:58.395Z,6.00
2018-09-06T22:13:26.295Z,6.40
2018-09-06T22:15:54.347Z,6.80
2018-09-06T22:18:22.342Z,5.90
2018-09-06T22:20:50.239Z,6.10
2018-09-06T22:23:18.134Z,6.50
2018-09-06T22:25:46.144Z,8.13
2018-09-06T22:28:14.029Z,8.00
2018-09-06T22:30:41.947Z,7.77
2018-09-06T22:33:09.861Z,7.83
2018-09-06T22:35:37.779Z,8.10
2018-09-06T22:38:05.705Z,7.83
2018-09-06T22:40:33.611Z,7.77
2018-09-06T22:43:01.518Z,8.70
2018-09-06T22:45:29.384Z,8.40
2018-09-06T22:47:57.324Z,9.00
2018-09-06T22:50:25.324Z,8.57
2018-09-06T22:52:53.211Z,9.13
2018-09-06T22:55:21.135Z,7.53
2018-09-06T22:57:49.127Z,8.10
2018-09-06T23:00:19.621Z,8.80
2018-09-06T23:02:53.152Z,11.03
2018-09-06T23:05:21.279Z,9.73
2018-09-06T23:07:49.348Z,10.50
2018-09-06T23:10:17.465Z,10.17
2018-09-06T23:12:45.401Z,8.20
2018-09-06T23:15:13.431Z,8.07
2018-09-06T23:17:41.382Z,7.50
2018-09-06T23:20:09.285Z,7.87
2018-09-06T23:22:37.908Z,6.20
2018-09-06T23:25:06.773Z,6.63
2018-09-06T23:27:34.699Z,6.60
2018-09-06T23:30:02.622Z,6.13
2018-09-06T23:32:30.619Z,6.27
2018-09-06T23:34:58.585Z,7.10
2018-09-06T23:37:26.607Z,6.40
2018-09-06T23:39:54.507Z,5.60
2018-09-06T23:42:24.826Z,5.27
2018-09-06T23:44:53.791Z,5.83
2018-09-06T23:47:21.784Z,4.40
2018-09-06T23:49:50.039Z,4.67
2018-09-06T23:52:18.429Z,4.23
2018-09-06T23:54:46.435Z,3.83
2018-09-06T23:57:14.325Z,5.33
2018-09-06T23:59:42.259Z,3.77
